Welcome to Northern Hawkes Bay. New Zealand.
PWS Header
      nz Flag



Hit Counter


W3C Valid W3C Valid logo


    Wairoa

Select any of the Stations below to visit their websites.










Historic Data from Weather Underground
Select the location of interest below. Wairoa is the default. Please have patience, this Data is slow to load in.
Northern Hawkes Bay Historical Data
Daily Summary for January 22, 2017 Units:  English    Metric   Both
« Previous Day
Next Day »
Daily Weekly Monthly Yearly Custom
  High: Low: Average:
Temperature: 82.2 °F 60.4 °F 70.3 °F
Dew Point: 64 °F 47.7 °F 53.4 °F
Humidity: 82% 33% 57%
Wind Speed: 22.1mph 1.6mph 10.4mph
Wind Gust: 39.6mph - -
Wind- - SSW
Pressure: 29.7 in 29.2 in -
Precipitation: 0.01 in    
Historical Graphs
 
 
Tabular Data for January 22, 2017
Time Temperature Dew Point Pressure Wind Wind Speed Wind Gust Humidity Rainfall Rate (Hourly) solar
00:03 64.4 °F 52 °F 29.7 in NE 6 mph 13.6 mph 64% 0 in 0 W/m2
00:08 63.7 °F 51.6 °F 29.7 in NE 3.1 mph 13.6 mph 65% 0 in 0 W/m2
00:13 63.1 °F 52.3 °F 29.7 in NE 6.9 mph 11.4 mph 68% 0 in 0 W/m2
00:18 62.8 °F 52.5 °F 29.7 in ENE 7.6 mph 13 mph 69% 0.01 in 0 W/m2
00:23 62.4 °F 53.2 °F 29.7 in ENE 5.4 mph 13 mph 72% 0.01 in 0 W/m2
00:28 62.1 °F 53.8 °F 29.7 in NE 4.5 mph 9.2 mph 74% 0.01 in 0 W/m2
00:33 61.7 °F 53.8 °F 29.7 in NE 4.5 mph 9.2 mph 75% 0.01 in 0 W/m2
00:39 61.7 °F 53.2 °F 29.7 in ENE 7.6 mph 9.8 mph 74% 0.01 in 0 W/m2
00:44 61.9 °F 53.4 °F 29.7 in ENE 6 mph 10.7 mph 74% 0.01 in 0 W/m2
00:49 61.7 °F 53.2 °F 29.7 in ENE 5.4 mph 10.7 mph 74% 0.01 in 0 W/m2
00:54 61.5 °F 54.3 °F 29.7 in ENE 7.6 mph 13.6 mph 77% 0.01 in 0 W/m2
00:59 61.2 °F 54.3 °F 29.7 in ENE 8.3 mph 13.6 mph 78% 0.01 in 0 W/m2
01:04 60.8 °F 54.3 °F 29.7 in ENE 4.5 mph 13.6 mph 79% 0.01 in 0 W/m2
01:09 60.6 °F 55 °F 29.7 in ENE 9.2 mph 13.6 mph 82% 0.01 in 0 W/m2
01:14 60.6 °F 55 °F 29.7 in NE 6 mph 11.4 mph 82% 0.01 in 0 W/m2
01:19 60.4 °F 54.9 °F 29.7 in NE 6 mph 11.4 mph 82% 0 in 0 W/m2
01:24 60.6 °F 54.9 °F 29.7 in ENE 5.4 mph 12.1 mph 81% 0 in 0 W/m2
01:29 60.6 °F 54.3 °F 29.7 in NE 5.4 mph 12.1 mph 80% 0 in 0 W/m2
01:34 61 °F 54.1 °F 29.7 in ENE 5.4 mph 11.4 mph 78% 0 in 0 W/m2
01:39 61.3 °F 53.8 °F 29.7 in ENE 8.3 mph 11.4 mph 76% 0 in 0 W/m2
01:44 61.3 °F 53.4 °F 29.7 in ENE 7.6 mph 11.4 mph 75% 0 in 0 W/m2
01:49 61.3 °F 53.1 °F 29.7 in ENE 8.3 mph 13 mph 74% 0 in 0 W/m2
01:54 61.3 °F 53.1 °F 29.6 in NE 7.6 mph 14.5 mph 74% 0 in 0 W/m2
01:59 61.7 °F 53.1 °F 29.6 in NE 7.6 mph 14.5 mph 73% 0 in 0 W/m2
02:04 61.9 °F 52.9 °F 29.6 in ENE 7.6 mph 13.6 mph 72% 0 in 0 W/m2
02:09 62.1 °F 52.2 °F 29.6 in ENE 7.6 mph 12.1 mph 70% 0 in 0 W/m2
02:14 62.4 °F 52.2 °F 29.6 in ENE 8.3 mph 15.9 mph 69% 0 in 0 W/m2
02:19 62.6 °F 52 °F 29.6 in ENE 7.6 mph 15.9 mph 68% 0 in 0 W/m2
02:24 62.6 °F 52 °F 29.6 in East 7.6 mph 13 mph 68% 0 in 0 W/m2
02:29 63 °F 51.4 °F 29.6 in ENE 8.3 mph 15.9 mph 66% 0 in 0 W/m2
02:34 63.1 °F 51.6 °F 29.6 in East 9.8 mph 15.9 mph 66% 0 in 0 W/m2
02:39 63.1 °F 51.6 °F 29.6 in East 6.9 mph 15.2 mph 66% 0 in 0 W/m2
02:44 62.8 °F 52.2 °F 29.6 in East 5.4 mph 14.5 mph 68% 0 in 0 W/m2
02:49 62.6 °F 52.3 °F 29.6 in East 7.6 mph 13 mph 69% 0 in 0 W/m2
02:54 62.6 °F 52.7 °F 29.6 in ENE 5.4 mph 13 mph 70% 0 in 0 W/m2
02:59 62.4 °F 52.9 °F 29.6 in East 4.5 mph 11.4 mph 71% 0 in 0 W/m2
03:04 62.4 °F 52.9 °F 29.6 in East 6 mph 10.7 mph 71% 0 in 0 W/m2
03:09 62.2 °F 53.4 °F 29.6 in East 4.5 mph 10.7 mph 73% 0 in 0 W/m2
03:14 61.7 °F 53.1 °F 29.6 in ENE 6.9 mph 10.7 mph 73% 0 in 0 W/m2
03:19 61.9 °F 53.1 °F 29.6 in ENE 6.9 mph 9.2 mph 73% 0 in 0 W/m2
03:24 62.2 °F 53.1 °F 29.6 in ENE 6 mph 9.2 mph 72% 0 in 0 W/m2
03:29 62.4 °F 53.2 °F 29.6 in ENE 7.6 mph 10.7 mph 72% 0 in 0 W/m2
03:34 62.6 °F 52.3 °F 29.6 in ENE 4.5 mph 10.7 mph 69% 0 in 0 W/m2
03:39 62.8 °F 52.2 °F 29.6 in NE 3.8 mph 11.4 mph 68% 0 in 0 W/m2
03:44 63 °F 51.8 °F 29.6 in NE 6 mph 11.4 mph 67% 0 in 0 W/m2
03:49 63 °F 52.3 °F 29.6 in NE 5.4 mph 11.4 mph 68% 0 in 0 W/m2
03:54 63 °F 52.3 °F 29.6 in NE 4.5 mph 11.4 mph 68% 0 in 0 W/m2
03:59 63.1 °F 51.6 °F 29.5 in NE 3.1 mph 10.7 mph 66% 0 in 0 W/m2
04:04 63.5 °F 51.4 °F 29.5 in NE 5.4 mph 10.7 mph 65% 0 in 0 W/m2
04:09 64.2 °F 51.4 °F 29.5 in NE 5.4 mph 9.8 mph 63% 0 in 0 W/m2
04:14 64.8 °F 52 °F 29.5 in NE 8.3 mph 12.1 mph 63% 0 in 0 W/m2
04:19 64.9 °F 51.6 °F 29.5 in NE 5.4 mph 12.1 mph 62% 0 in 0 W/m2
04:24 65.3 °F 51.4 °F 29.5 in ENE 6.9 mph 11.4 mph 61% 0 in 0 W/m2
04:29 65.3 °F 51.4 °F 29.5 in NE 4.5 mph 10.7 mph 61% 0 in 0 W/m2
04:34 65.5 °F 51.3 °F 29.5 in NE 8.3 mph 11.4 mph 60% 0 in 0 W/m2
04:39 65.8 °F 51.6 °F 29.5 in NE 3.8 mph 11.4 mph 60% 0 in 0 W/m2
04:44 66 °F 51.8 °F 29.5 in NE 4.5 mph 11.4 mph 60% 0 in 0 W/m2
04:49 66 °F 51.8 °F 29.5 in ENE 4.5 mph 11.4 mph 60% 0 in 0 W/m2
04:54 66 °F 51.8 °F 29.5 in ENE 5.4 mph 11.4 mph 60% 0 in 0 W/m2
04:59 65.8 °F 51.6 °F 29.5 in ENE 5.4 mph 11.4 mph 60% 0 in 0 W/m2
05:04 66 °F 52.2 °F 29.5 in ENE 6.9 mph 9.8 mph 61% 0 in 0 W/m2
05:09 66 °F 52.2 °F 29.5 in NE 4.5 mph 10.7 mph 61% 0 in 0 W/m2
05:14 66 °F 52.5 °F 29.5 in NE 6.9 mph 10.7 mph 62% 0 in 0 W/m2
05:19 65.8 °F 52.9 °F 29.5 in NE 1.6 mph 9.2 mph 63% 0 in 0 W/m2
05:24 65.8 °F 53.2 °F 29.5 in NE 6 mph 13 mph 64% 0 in 0 W/m2
05:29 66 °F 53.4 °F 29.5 in NE 3.8 mph 13 mph 64% 0 in 0 W/m2
05:34 65.8 °F 53.8 °F 29.5 in NNE 6.9 mph 10.7 mph 65% 0 in 0 W/m2
05:39 66 °F 54.3 °F 29.5 in NE 4.5 mph 15.9 mph 66% 0 in 0 W/m2
05:44 66 °F 54.3 °F 29.5 in NE 3.8 mph 15.9 mph 66% 0 in 0 W/m2
05:49 65.8 °F 54.1 °F 29.4 in NNE 5.4 mph 13 mph 66% 0 in 0 W/m2
05:54 66.6 °F 54.5 °F 29.4 in NE 9.2 mph 20.6 mph 65% 0 in 0 W/m2
05:59 67.3 °F 55 °F 29.4 in NNE 18.3 mph 28.9 mph 65% 0 in 0 W/m2
06:04 67.8 °F 55.6 °F 29.4 in NNE 9.8 mph 28.9 mph 65% 0 in 0 W/m2
06:09 67.8 °F 55.6 °F 29.4 in NE 6.9 mph 28.9 mph 65% 0 in 0 W/m2
06:14 67.8 °F 55.6 °F 29.4 in NE 7.6 mph 29.8 mph 65% 0 in 1 W/m2
06:19 67.8 °F 55.6 °F 29.4 in NNE 11.4 mph 29.8 mph 65% 0 in 4 W/m2
06:24 67.8 °F 55.6 °F 29.4 in NNE 14.5 mph 25.1 mph 65% 0 in 6 W/m2
06:29 68.2 °F 55.6 °F 29.4 in NE 12.1 mph 24.4 mph 64% 0 in 10 W/m2
06:34 68.2 °F 55.6 °F 29.4 in NE 9.8 mph 25.9 mph 64% 0 in 18 W/m2
06:39 68.2 °F 55.6 °F 29.4 in NNE 8.3 mph 25.9 mph 64% 0 in 27 W/m2
06:44 68.2 °F 55.9 °F 29.4 in NE 9.8 mph 21.3 mph 65% 0 in 37 W/m2
06:49 68.4 °F 56.1 °F 29.4 in NE 13.6 mph 23.5 mph 65% 0 in 40 W/m2
06:54 68.4 °F 56.1 °F 29.4 in NE 8.3 mph 23.5 mph 65% 0 in 37 W/m2
07:14 68.5 °F 56.8 °F 29.4 in NE 13.6 mph 22.8 mph 66% 0 in 60 W/m2
07:19 68.5 °F 57.2 °F 29.4 in NE 7.6 mph 26.6 mph 67% 0 in 59 W/m2
07:24 68.5 °F 57.2 °F 29.4 in NNE 9.2 mph 26.6 mph 67% 0 in 49 W/m2
07:29 68.7 °F 57.4 °F 29.4 in NE 12.1 mph 24.4 mph 67% 0 in 76 W/m2
07:34 68.9 °F 57.9 °F 29.4 in NE 7.6 mph 22.8 mph 68% 0 in 83 W/m2
07:39 68.9 °F 57.9 °F 29.4 in NE 8.3 mph 19 mph 68% 0 in 80 W/m2
07:44 68.9 °F 57.9 °F 29.4 in NE 9.2 mph 22.1 mph 68% 0 in 82 W/m2
07:49 68.9 °F 57.6 °F 29.3 in NE 7.6 mph 22.1 mph 67% 0 in 103 W/m2
07:54 68.7 °F 57.4 °F 29.3 in ENE 7.6 mph 19 mph 67% 0 in 145 W/m2
07:59 68.7 °F 57.4 °F 29.3 in NE 13 mph 18.3 mph 67% 0 in 135 W/m2
08:04 68.4 °F 57.4 °F 29.3 in NE 12.1 mph 21.3 mph 68% 0 in 143 W/m2
08:09 68.4 °F 57.4 °F 29.3 in NE 6.9 mph 21.3 mph 68% 0 in 141 W/m2
08:14 68.2 °F 57.2 °F 29.3 in NE 6 mph 21.3 mph 68% 0 in 141 W/m2
08:19 68 °F 57.6 °F 29.3 in NE 8.3 mph 19.7 mph 69% 0 in 124 W/m2
08:24 68 °F 57.9 °F 29.3 in NE 7.6 mph 19 mph 70% 0 in 127 W/m2
08:29 68.2 °F 58.5 °F 29.3 in NE 9.8 mph 19 mph 71% 0 in 127 W/m2
08:34 68.9 °F 59.5 °F 29.3 in NE 6.9 mph 19 mph 72% 0 in 127 W/m2
08:39 69.3 °F 59.5 °F 29.3 in NE 9.2 mph 19 mph 71% 0 in 134 W/m2
08:44 70 °F 60.3 °F 29.3 in NE 13 mph 19.7 mph 71% 0 in 185 W/m2
08:49 70.5 °F 60.3 °F 29.3 in NE 11.4 mph 25.9 mph 70% 0 in 169 W/m2
08:54 71.1 °F 60.8 °F 29.3 in NE 11.4 mph 27.3 mph 70% 0 in 340 W/m2
08:59 72.1 °F 60.6 °F 29.3 in NE 9.8 mph 28.2 mph 67% 0 in 299 W/m2
09:04 72.7 °F 61.2 °F 29.3 in NE 15.2 mph 28.2 mph 67% 0 in 374 W/m2
09:09 73.2 °F 61.2 °F 29.3 in NE 13.6 mph 26.6 mph 66% 0 in 293 W/m2
09:14 73.4 °F 61.9 °F 29.2 in NE 11.4 mph 26.6 mph 67% 0 in 266 W/m2
09:19 73.8 °F 61.7 °F 29.2 in NE 15.9 mph 32 mph 66% 0 in 185 W/m2
09:24 73.6 °F 62.1 °F 29.2 in NE 9.2 mph 32 mph 67% 0 in 202 W/m2
09:29 73.8 °F 62.2 °F 29.2 in NNE 11.4 mph 23.5 mph 67% 0 in 238 W/m2
09:34 73.9 °F 62.2 °F 29.2 in NNE 13 mph 24.4 mph 67% 0 in 185 W/m2
09:39 73.9 °F 62.2 °F 29.2 in NE 9.8 mph 24.4 mph 67% 0 in 163 W/m2
09:44 73.9 °F 62.8 °F 29.2 in NE 8.3 mph 32.7 mph 68% 0 in 150 W/m2
09:49 74.1 °F 62.4 °F 29.2 in NE 12.1 mph 32.7 mph 67% 0 in 143 W/m2
09:54 74.1 °F 63 °F 29.2 in ENE 13.6 mph 28.2 mph 68% 0 in 160 W/m2
09:59 74.8 °F 63.1 °F 29.2 in NE 11.4 mph 28.2 mph 67% 0 in 256 W/m2
10:04 75.6 °F 63.3 °F 29.2 in NE 15.2 mph 24.4 mph 66% 0 in 315 W/m2
10:09 75.9 °F 63.3 °F 29.2 in NE 19.7 mph 28.9 mph 65% 0 in 156 W/m2
10:14 76.1 °F 63.5 °F 29.2 in NE 14.5 mph 28.9 mph 65% 0 in 124 W/m2
10:19 76.6 °F 64 °F 29.2 in NE 15.2 mph 25.9 mph 65% 0 in 166 W/m2
10:24 77.4 °F 63.9 °F 29.2 in NNE 12.1 mph 25.1 mph 63% 0 in 254 W/m2
10:29 79.3 °F 61.9 °F 29.2 in NNE 18.3 mph 32 mph 55% 0 in 211 W/m2
10:34 80.2 °F 62.1 °F 29.2 in North 8.3 mph 32 mph 54% 0 in 125 W/m2
10:39 79.9 °F 61.3 °F 29.2 in NNW 9.8 mph 28.9 mph 53% 0 in 77 W/m2
10:44 79.5 °F 61.5 °F 29.2 in North 13 mph 20.6 mph 54% 0 in 50 W/m2
10:49 79.3 °F 61.3 °F 29.2 in North 9.8 mph 19 mph 54% 0 in 57 W/m2
10:54 79.3 °F 61.3 °F 29.2 in NNW 4.5 mph 19 mph 54% 0 in 67 W/m2
10:59 79 °F 61 °F 29.2 in NW 5.4 mph 15.2 mph 54% 0 in 69 W/m2
11:04 78.4 °F 61.5 °F 29.2 in NNW 12.1 mph 18.3 mph 56% 0 in 54 W/m2
11:09 77.4 °F 60.4 °F 29.2 in North 13.6 mph 26.6 mph 56% 0 in 95 W/m2
11:14 77 °F 60.6 °F 29.2 in North 8.3 mph 26.6 mph 57% 0 in 129 W/m2
11:19 77 °F 60.6 °F 29.3 in NNW 9.8 mph 18.3 mph 57% 0 in 161 W/m2
11:24 76.6 °F 59.4 °F 29.3 in NW 22.1 mph 29.8 mph 55% 0 in 164 W/m2
11:29 76.1 °F 58.8 °F 29.3 in NW 10.7 mph 29.8 mph 55% 0 in 168 W/m2
11:34 75.9 °F 58.1 °F 29.3 in NW 14.5 mph 35.8 mph 54% 0 in 312 W/m2
11:39 76.1 °F 58.3 °F 29.3 in NW 15.2 mph 36.5 mph 54% 0 in 766 W/m2
11:44 76.6 °F 58.3 °F 29.3 in NW 13 mph 36.5 mph 53% 0 in 376 W/m2
11:49 76.6 °F 57.7 °F 29.3 in NNW 18.3 mph 32 mph 52% 0 in 323 W/m2
11:54 76.5 °F 57.6 °F 29.3 in NW 14.5 mph 32 mph 52% 0 in 487 W/m2
11:59 76.5 °F 57.6 °F 29.3 in NNW 13 mph 29.8 mph 52% 0 in 825 W/m2
12:04 77.4 °F 57.4 °F 29.3 in NNW 10.7 mph 27.3 mph 50% 0 in 1065 W/m2
12:09 77.7 °F 57.6 °F 29.3 in NW 10.7 mph 25.1 mph 50% 0 in 612 W/m2
12:14 78.4 °F 57.2 °F 29.3 in WNW 9.2 mph 24.4 mph 48% 0 in 1104 W/m2
12:19 77.7 °F 55.9 °F 29.3 in WNW 9.8 mph 19 mph 47% 0 in 257 W/m2
12:24 78.1 °F 55.8 °F 29.3 in NW 13.6 mph 23.5 mph 46% 0 in 911 W/m2
12:29 78.6 °F 56.7 °F 29.3 in NW 9.8 mph 23.5 mph 47% 0 in 638 W/m2
12:34 78.6 °F 55.6 °F 29.3 in NNW 10.7 mph 24.4 mph 45% 0 in 1120 W/m2
12:39 79.3 °F 55.6 °F 29.3 in NNW 5.4 mph 24.4 mph 44% 0 in 1076 W/m2
12:44 80.2 °F 55.8 °F 29.3 in NW 12.1 mph 16.8 mph 43% 0 in 1073 W/m2
12:49 80.1 °F 55.6 °F 29.3 in WNW 7.6 mph 16.8 mph 43% 0 in 283 W/m2
12:55 78.6 °F 54.3 °F 29.3 in NW 4.5 mph 16.8 mph 43% 0 in 1080 W/m2
13:00 79.3 °F 52.3 °F 29.3 in NW 17.4 mph 24.4 mph 39% 0 in 1036 W/m2
13:05 79.7 °F 52 °F 29.3 in NNW 13 mph 24.4 mph 38% 0 in 1006 W/m2
13:10 79.7 °F 49.6 °F 29.3 in North 7.6 mph 25.9 mph 35% 0 in 996 W/m2
13:15 80.1 °F 50 °F 29.3 in North 15.2 mph 25.9 mph 35% 0 in 983 W/m2
13:20 80.4 °F 51.1 °F 29.3 in NNW 10.7 mph 23.5 mph 36% 0 in 982 W/m2
13:25 80.4 °F 50.4 °F 29.3 in NNW 15.2 mph 27.3 mph 35% 0 in 986 W/m2
13:30 80.1 °F 50.7 °F 29.3 in NW 15.9 mph 28.9 mph 36% 0 in 265 W/m2
13:35 80.6 °F 50.5 °F 29.3 in NNW 6 mph 28.9 mph 35% 0 in 970 W/m2
13:40 81.3 °F 49.5 °F 29.3 in NNW 6 mph 16.8 mph 33% 0 in 977 W/m2
13:45 81.7 °F 51.4 °F 29.3 in NW 13 mph 22.1 mph 35% 0 in 980 W/m2
13:50 81.5 °F 50.5 °F 29.3 in NNW 10.7 mph 22.1 mph 34% 0 in 987 W/m2
13:55 81.1 °F 50.2 °F 29.3 in North 9.8 mph 22.8 mph 34% 0 in 964 W/m2
14:00 82.2 °F 51.1 °F 29.3 in NNW 14.5 mph 22.8 mph 34% 0 in 382 W/m2
14:05 81.3 °F 49.5 °F 29.3 in NNW 9.2 mph 23.5 mph 33% 0 in 439 W/m2
14:10 80.2 °F 50.2 °F 29.3 in NNW 14.5 mph 28.2 mph 35% 0 in 1083 W/m2
14:16 79.5 °F 51.1 °F 29.3 in NW 14.5 mph 28.2 mph 37% 0 in 936 W/m2
14:21 79.2 °F 53.4 °F 29.3 in NW 18.3 mph 34.9 mph 41% 0 in 897 W/m2
14:41 78.8 °F 54.5 °F 29.3 in NNW 13.6 mph 27.3 mph 43% 0 in 884 W/m2
14:46 79 °F 54 °F 29.3 in NW 16.8 mph 28.2 mph 42% 0 in 868 W/m2
14:51 78.8 °F 53.8 °F 29.3 in NW 10.7 mph 28.2 mph 42% 0 in 865 W/m2
14:56 79 °F 54 °F 29.3 in NW 16.8 mph 28.9 mph 42% 0 in 901 W/m2
15:01 78.8 °F 53.8 °F 29.3 in NW 12.1 mph 28.9 mph 42% 0 in 848 W/m2
15:06 79 °F 50.5 °F 29.3 in NW 16.8 mph 33.6 mph 37% 0 in 834 W/m2
15:11 79.3 °F 51.6 °F 29.3 in NNW 16.8 mph 33.6 mph 38% 0 in 833 W/m2
15:16 79 °F 51.3 °F 29.3 in NNW 12.1 mph 31.1 mph 38% 0 in 483 W/m2
15:21 79.2 °F 52.2 °F 29.3 in NNW 22.1 mph 31.1 mph 39% 0 in 837 W/m2
15:26 78.8 °F 51.8 °F 29.3 in NNW 15.2 mph 31.1 mph 39% 0 in 656 W/m2
15:31 78.4 °F 50 °F 29.3 in NW 17.4 mph 31.1 mph 37% 0 in 915 W/m2
15:36 78.8 °F 49.6 °F 29.3 in NNW 18.3 mph 38.7 mph 36% 0 in 808 W/m2
15:41 78.8 °F 51.1 °F 29.3 in NNW 15.2 mph 38.7 mph 38% 0 in 190 W/m2
15:46 78.3 °F 52.7 °F 29.3 in NNW 13 mph 28.2 mph 41% 0 in 708 W/m2
15:51 79 °F 52.5 °F 29.3 in NW 10.7 mph 26.6 mph 40% 0 in 757 W/m2
15:56 78.6 °F 53.1 °F 29.3 in NW 17.4 mph 31.1 mph 41% 0 in 646 W/m2
16:01 78.3 °F 54 °F 29.3 in NNW 16.8 mph 39.6 mph 43% 0 in 659 W/m2
16:06 78.1 °F 53.2 °F 29.3 in NNW 14.5 mph 39.6 mph 42% 0 in 714 W/m2
16:11 77.5 °F 52.7 °F 29.3 in NNW 20.6 mph 29.8 mph 42% 0 in 194 W/m2
16:16 77.4 °F 53.2 °F 29.3 in NNW 15.2 mph 32 mph 43% 0 in 685 W/m2
16:21 77.2 °F 52.3 °F 29.3 in NW 13.6 mph 32 mph 42% 0 in 651 W/m2
16:26 78.1 °F 52.5 °F 29.3 in NW 10.7 mph 25.9 mph 41% 0 in 633 W/m2
16:31 77.9 °F 50.4 °F 29.3 in NW 16.8 mph 30.4 mph 38% 0 in 631 W/m2
16:36 77.7 °F 50.7 °F 29.3 in NW 15.2 mph 31.1 mph 39% 0 in 597 W/m2
16:41 77.7 °F 50.7 °F 29.3 in NW 16.8 mph 31.1 mph 39% 0 in 588 W/m2
16:46 77 °F 50.2 °F 29.3 in NNW 16.8 mph 29.8 mph 39% 0 in 149 W/m2
16:51 76.1 °F 52 °F 29.3 in NW 9.8 mph 29.8 mph 43% 0 in 592 W/m2
16:56 76.5 °F 52.3 °F 29.3 in NW 15.2 mph 26.6 mph 43% 0 in 527 W/m2
17:01 76.3 °F 50.9 °F 29.3 in NNW 15.9 mph 30.4 mph 41% 0 in 524 W/m2
17:06 76.3 °F 50.9 °F 29.3 in NNW 13 mph 30.4 mph 41% 0 in 514 W/m2
17:11 76.5 °F 50.4 °F 29.3 in NNW 12.1 mph 30.4 mph 40% 0 in 507 W/m2
17:16 76.3 °F 50.2 °F 29.3 in NNW 13.6 mph 28.9 mph 40% 0 in 487 W/m2
17:21 77 °F 49.5 °F 29.3 in NNW 13 mph 25.1 mph 38% 0 in 475 W/m2
17:26 77.2 °F 49.6 °F 29.3 in NNW 11.4 mph 25.1 mph 38% 0 in 457 W/m2
17:31 75.9 °F 49.3 °F 29.3 in NNW 18.3 mph 33.6 mph 39% 0 in 438 W/m2
17:36 75.2 °F 48.6 °F 29.3 in NNW 22.1 mph 33.6 mph 39% 0 in 105 W/m2
17:41 73.9 °F 48.7 °F 29.3 in NNW 18.3 mph 30.4 mph 41% 0 in 401 W/m2
17:46 74.8 °F 48.9 °F 29.3 in NNW 12.1 mph 30.4 mph 40% 0 in 402 W/m2
17:51 74.1 °F 48.4 °F 29.3 in NNW 9.8 mph 27.3 mph 40% 0 in 385 W/m2
17:56 74.3 °F 49.1 °F 29.3 in NNW 9.2 mph 25.9 mph 41% 0 in 386 W/m2
18:01 74.1 °F 47.7 °F 29.3 in North 10.7 mph 27.3 mph 39% 0 in 359 W/m2
18:06 73.9 °F 48.7 °F 29.3 in NNW 13 mph 27.3 mph 41% 0 in 337 W/m2
18:11 73.4 °F 49.6 °F 29.3 in North 12.1 mph 29.8 mph 43% 0 in 320 W/m2
18:16 72.5 °F 49.5 °F 29.3 in NNW 15.2 mph 29.8 mph 44% 0 in 319 W/m2
18:21 72.5 °F 49.5 °F 29.3 in NW 13 mph 24.4 mph 44% 0 in 314 W/m2
18:26 72.1 °F 50.2 °F 29.3 in NNW 13.6 mph 28.9 mph 46% 0 in 289 W/m2
18:31 71.8 °F 51.1 °F 29.3 in North 6.9 mph 28.9 mph 48% 0 in 271 W/m2
18:36 71.8 °F 49.8 °F 29.3 in North 13 mph 28.9 mph 46% 0 in 257 W/m2
18:41 71.6 °F 49.8 °F 29.3 in North 12.1 mph 28.9 mph 46% 0 in 233 W/m2
18:46 71.1 °F 50.4 °F 29.3 in NNW 9.8 mph 31.1 mph 48% 0 in 232 W/m2
18:51 70.9 °F 50.2 °F 29.3 in NNW 13 mph 31.1 mph 48% 0 in 221 W/m2
19:09 69.4 °F 51.1 °F 29.3 in North 12.1 mph 20.6 mph 52% 0 in 50 W/m2
19:14 69.1 °F 49.1 °F 29.3 in NNW 15.2 mph 27.3 mph 49% 0 in 52 W/m2
19:19 68.5 °F 49.6 °F 29.3 in NNW 15.2 mph 27.3 mph 51% 0 in 54 W/m2
19:24 68.2 °F 50.4 °F 29.3 in NW 19 mph 27.3 mph 53% 0 in 56 W/m2
19:29 68 °F 50.4 °F 29.3 in NW 13.6 mph 26.6 mph 53% 0 in 59 W/m2
19:34 68 °F 50.4 °F 29.3 in NW 10.7 mph 26.6 mph 53% 0 in 45 W/m2
19:39 67.8 °F 50.5 °F 29.3 in NW 18.3 mph 24.4 mph 54% 0 in 53 W/m2
19:44 67.6 °F 50.4 °F 29.3 in NW 15.2 mph 24.4 mph 54% 0 in 38 W/m2
19:49 67.3 °F 50.2 °F 29.3 in NW 14.5 mph 25.1 mph 54% 0 in 39 W/m2
19:54 67.1 °F 49.8 °F 29.3 in NNW 7.6 mph 25.1 mph 54% 0 in 34 W/m2
19:59 67.1 °F 49.8 °F 29.3 in NNW 8.3 mph 23.5 mph 54% 0 in 30 W/m2
20:04 67.1 °F 49.8 °F 29.3 in North 9.2 mph 22.1 mph 54% 0 in 17 W/m2
20:09 66.9 °F 49.8 °F 29.3 in North 11.4 mph 17.4 mph 54% 0 in 13 W/m2
20:25 66.9 °F 49.3 °F 29.3 in NNW 8.3 mph 27.3 mph 53% 0 in 4 W/m2
20:30 66.6 °F 49.5 °F 29.3 in North 8.3 mph 21.3 mph 54% 0 in 1 W/m2
20:35 66.6 °F 49.5 °F 29.3 in North 13 mph 22.1 mph 54% 0 in 0 W/m2
20:40 66.4 °F 49.6 °F 29.3 in NNW 10.7 mph 22.1 mph 55% 0 in 0 W/m2
20:45 66.2 °F 49.1 °F 29.4 in NNW 11.4 mph 19 mph 54% 0 in 0 W/m2
20:50 66.2 °F 49.6 °F 29.4 in NNW 13 mph 26.6 mph 55% 0 in 0 W/m2
20:55 66 °F 49.8 °F 29.3 in NNW 8.3 mph 26.6 mph 56% 0 in 0 W/m2
21:00 66.7 °F 49.6 °F 29.4 in NNW 9.8 mph 20.6 mph 54% 0 in 0 W/m2
21:05 66 °F 49.5 °F 29.4 in NNW 12.1 mph 22.8 mph 55% 0 in 0 W/m2
21:10 65.8 °F 49.3 °F 29.4 in NNW 15.9 mph 22.8 mph 55% 0 in 0 W/m2
21:15 65.8 °F 49.6 °F 29.4 in NNW 9.8 mph 22.8 mph 56% 0 in 0 W/m2
21:20 66 °F 49.8 °F 29.4 in NNW 8.3 mph 19.7 mph 56% 0 in 0 W/m2
21:25 65.7 °F 49.6 °F 29.4 in NNW 12.1 mph 22.1 mph 56% 0 in 0 W/m2
21:30 65.5 °F 48.9 °F 29.4 in NW 13.6 mph 22.8 mph 55% 0 in 0 W/m2
21:35 65.3 °F 48.7 °F 29.4 in NNW 15.2 mph 22.8 mph 55% 0 in 0 W/m2
21:40 65.8 °F 49.3 °F 29.4 in NW 13 mph 26.6 mph 55% 0 in 0 W/m2
21:45 65.3 °F 48.7 °F 29.4 in NW 13 mph 26.6 mph 55% 0 in 0 W/m2
21:50 65.1 °F 48.6 °F 29.4 in NW 8.3 mph 22.8 mph 55% 0 in 0 W/m2
22:09 64.9 °F 48.4 °F 29.4 in NW 11.4 mph 20.6 mph 55% 0 in 0 W/m2
22:14 64.8 °F 48.2 °F 29.4 in NNW 14.5 mph 21.3 mph 55% 0 in 0 W/m2
22:19 64.9 °F 48.4 °F 29.4 in NW 9.2 mph 21.3 mph 55% 0 in 0 W/m2
22:24 64.9 °F 48.4 °F 29.4 in NW 9.2 mph 18.3 mph 55% 0 in 0 W/m2
22:29 64.6 °F 48.6 °F 29.4 in NW 6 mph 18.3 mph 56% 0 in 0 W/m2
22:34 64.6 °F 48.6 °F 29.4 in NNW 6.9 mph 18.3 mph 56% 0 in 0 W/m2
22:39 64.8 °F 48.2 °F 29.4 in NNW 11.4 mph 19 mph 55% 0 in 0 W/m2
22:44 64.9 °F 48.4 °F 29.4 in NNW 9.8 mph 19 mph 55% 0 in 0 W/m2
23:01 64.2 °F 48.2 °F 29.4 in NNW 6.9 mph 19 mph 56% 0 in 0 W/m2
23:06 64.2 °F 48.2 °F 29.4 in NNW 14.5 mph 19 mph 56% 0 in 0 W/m2
23:11 63.9 °F 48.4 °F 29.4 in NNW 10.7 mph 19 mph 57% 0 in 0 W/m2
23:16 63.7 °F 48.2 °F 29.4 in NNW 11.4 mph 19 mph 57% 0 in 0 W/m2
23:21 63.7 °F 48.2 °F 29.4 in NNW 8.3 mph 17.4 mph 57% 0 in 0 W/m2
23:26 63.5 °F 48 °F 29.4 in NNW 6.9 mph 14.5 mph 57% 0 in 0 W/m2
23:31 63.5 °F 48 °F 29.4 in NNW 6.9 mph 15.2 mph 57% 0 in 0 W/m2
23:36 64 °F 48 °F 29.4 in NNW 9.2 mph 22.8 mph 56% 0 in 0 W/m2
23:41 64 °F 48 °F 29.4 in NW 2.2 mph 22.8 mph 56% 0 in 0 W/m2
23:46 63.9 °F 47.8 °F 29.4 in NW 5.4 mph 14.5 mph 56% 0 in 0 W/m2
23:51 64 °F 48 °F 29.4 in NW 6.9 mph 19 mph 56% 0 in 0 W/m2
23:56 64.4 °F 48.4 °F 29.4 in NNW 5.4 mph 19 mph 56% 0 in 0 W/m2
Northern Hawkes Bay. New Zealand Historic Data
Compliments of Weather Underground - 2.25 mb